FW4423 Severna Park MD US current weather conditions

sailwx.info

Wind from 353 at 2 knots gusting 3

Air temperature 7.2° C
Dewpoint 7.1° C

Last reported at 2020-Jan-25 13:55 UTC.
Time now 2020-Jan-25 15:01 UTC

Location: N 39°04' W 076°34'.
View on Google Maps.

See reports from other nearby stations

  
Tides and Currents Weather Stations Pressure Air Temp Water Temp Dewpoint Dewpoint Depression Visibility Wind Speed Wind Dir Waves Ship Positions
date/time (UTC)wind fromknots sea level pressurealtimeterstation pressurevisibilityair tempwater tempwave heightnotes
2020-Jan-25 13:55 353 2 gusting 3 7.2
2020-Jan-25 13:45 006 4 gusting 6 7.2
2020-Jan-25 13:35 354 5 gusting 6 7.2
2020-Jan-25 13:25 006 3 gusting 6 7.2
2020-Jan-25 13:15 044 3 gusting 4 7.2
2020-Jan-25 13:05 001 3 gusting 6 7.2
2020-Jan-25 12:55 018 4 gusting 6 7.2
2020-Jan-25 12:45 346 4 gusting 6 7.2
2020-Jan-25 12:35 325 3 gusting 6 7.8
2020-Jan-25 12:25 320 2 gusting 4 7.8
2020-Jan-25 12:15 304 2 gusting 3 7.8
2020-Jan-25 12:05 346 3 gusting 6 7.8
2020-Jan-25 11:55 351 3 gusting 6 7.8
2020-Jan-25 11:45 353 4 gusting 6 7.8
2020-Jan-25 11:35 354 3 gusting 5 7.8
2020-Jan-25 11:25 321 3 gusting 4 7.8
2020-Jan-25 11:15 295 4 gusting 6 7.8
2020-Jan-25 11:05 287 4 gusting 6 7.8
2020-Jan-25 10:55 157 1 gusting 3 7.8
2020-Jan-25 10:45 135 1 gusting 4 7.8
2020-Jan-25 10:35 060 1 gusting 3 7.8
2020-Jan-25 10:25 065 2 gusting 6 7.8
2020-Jan-25 10:15 125 2 gusting 5 7.8
2020-Jan-25 10:05 062 4 gusting 5 7.8
2020-Jan-25 09:55 053 3 gusting 6 7.2
2020-Jan-25 09:45 075 2 gusting 4 7.2
2020-Jan-25 09:35 060 2 gusting 3 7.2
2020-Jan-25 09:25 213 0 gusting 1 7.2
2020-Jan-25 09:15 072 2 gusting 4 7.2
2020-Jan-25 09:05 120 1 gusting 3 7.2
2020-Jan-25 08:55 075 2 gusting 3 7.2
2020-Jan-25 08:45 046 1 gusting 1 7.2
2020-Jan-25 08:35 079 1 gusting 4 7.2
2020-Jan-25 08:25 219 7.2
2020-Jan-25 08:15 215 0 gusting 1 7.2
2020-Jan-25 08:05 125 1 gusting 6 7.2
2020-Jan-25 07:55 121 2 gusting 4 7.2
2020-Jan-25 07:45 109 3 gusting 6 7.2
2020-Jan-25 07:35 101 3 gusting 6 7.2
2020-Jan-25 07:25 072 4 gusting 6 7.2
2020-Jan-25 07:15 090 4 gusting 11 7.2
2020-Jan-25 07:05 101 2 gusting 6 7.2
2020-Jan-25 06:55 084 2 gusting 5 7.2
2020-Jan-25 06:45 101 1 gusting 4 7.2
2020-Jan-25 06:35 110 0 gusting 1 7.2
2020-Jan-25 06:25 108 1 gusting 3 7.2
2020-Jan-25 06:15 095 2 gusting 4 7.2
2020-Jan-25 06:05 091 2 gusting 4 7.2
2020-Jan-25 05:55 108 2 gusting 4 7.2
2020-Jan-25 05:45 090 1 gusting 3 7.2
2020-Jan-25 05:35 078 3 gusting 4 7.2
2020-Jan-25 05:25 126 2 gusting 5 7.2
2020-Jan-25 05:15 100 1 gusting 4 7.2
2020-Jan-25 05:05 106 1 gusting 3 7.2
2020-Jan-25 04:55 097 2 gusting 6 7.2
2020-Jan-25 04:45 164 1 gusting 4 6.7
2020-Jan-25 04:35 081 3 gusting 5 6.7
2020-Jan-25 04:25 128 2 gusting 5 6.7
2020-Jan-25 04:15 087 2 gusting 5 6.7
2020-Jan-25 04:05 080 2 gusting 6 6.7
2020-Jan-25 03:55 081 3 gusting 6 6.7
2020-Jan-25 03:45 075 2 gusting 3 6.7
2020-Jan-25 03:35 121 2 gusting 3 6.7
2020-Jan-25 03:25 103 2 gusting 3 6.7
2020-Jan-25 03:15 102 1 gusting 2 6.7
2020-Jan-25 03:05 101 1 gusting 2 6.7
2020-Jan-25 02:55 081 2 gusting 4 6.7
2020-Jan-25 02:45 110 2 gusting 4 6.7
2020-Jan-25 02:35 126 1 gusting 2 6.7
2020-Jan-25 02:25 124 1 gusting 3 6.7
2020-Jan-25 02:15 113 1 gusting 3 6.7
2020-Jan-25 02:05 112 1 gusting 3 6.7
2020-Jan-25 01:55 102 2 gusting 3 6.7
2020-Jan-25 01:45 115 1 gusting 3 6.7
2020-Jan-25 01:35 090 1 gusting 4 7.2
2020-Jan-25 01:25 105 1 gusting 3 7.2
2020-Jan-25 01:15 100 1 gusting 3 7.2
2020-Jan-25 01:05 106 0 gusting 2 7.2
2020-Jan-25 00:55 123 0 gusting 2 7.2
2020-Jan-25 00:45 105 1 gusting 2 7.2
2020-Jan-25 00:35 127 2 gusting 3 7.2
2020-Jan-25 00:25 119 1 gusting 4 7.2
2020-Jan-25 00:15 094 1 gusting 5 7.8
2020-Jan-25 00:05 102 0 gusting 3 7.8
2020-Jan-24 23:55 123 2 gusting 3 7.8
2020-Jan-24 23:45 109 2 gusting 3 7.8
2020-Jan-24 23:35 104 2 gusting 4 7.8
2020-Jan-24 23:25 102 1 gusting 3 7.8
2020-Jan-24 23:15 137 0 gusting 1 8.3
2020-Jan-24 23:05 096 1 gusting 2 8.3
2020-Jan-24 22:55 114 2 gusting 3 8.3
2020-Jan-24 22:45 096 1 gusting 2 8.3
2020-Jan-24 22:35 111 1 gusting 3 8.9
2020-Jan-24 22:25 094 1 gusting 3 8.9
2020-Jan-24 22:15 095 2 gusting 4 9.4
2020-Jan-24 22:05 107 2 gusting 5 9.4
2020-Jan-24 21:55 113 3 gusting 5 10.0
2020-Jan-24 21:45 114 1 gusting 3 10.0
2020-Jan-24 21:35 112 1 gusting 3 10.0
2020-Jan-24 21:25 099 2 gusting 4 10.6
2020-Jan-24 21:15 096 2 gusting 4 10.6
2020-Jan-24 21:05 088 1 gusting 3 10.6
2020-Jan-24 20:55 092 1 gusting 2 10.6
2020-Jan-24 20:45 071 1 gusting 3 10.6
2020-Jan-24 20:35 054 1 gusting 3 10.6
2020-Jan-24 20:25 063 1 gusting 2 10.6
2020-Jan-24 20:15 067 1 gusting 1 10.0
2020-Jan-24 20:05 084 1 gusting 1 10.0
2020-Jan-24 19:55 052 1 gusting 2 10.0
2020-Jan-24 19:45 061 1 gusting 2 10.0
2020-Jan-24 19:35 10.0
2020-Jan-24 19:25 071 2 gusting 4 10.0
2020-Jan-24 19:15 087 2 gusting 4 10.0
2020-Jan-24 19:05 085 2 gusting 3 9.4
2020-Jan-24 18:55 064 1 gusting 2 9.4
2020-Jan-24 18:45 085 2 gusting 4 8.9
2020-Jan-24 18:35 089 2 gusting 4 8.9
2020-Jan-24 18:25 096 2 gusting 3 8.9
2020-Jan-24 18:15 093 1 gusting 3 8.3
2020-Jan-24 18:05 089 2 gusting 4 8.3
2020-Jan-24 17:55 079 2 gusting 4 8.3
2020-Jan-24 17:45 089 1 gusting 2 7.8
2020-Jan-24 17:35 067 2 gusting 4 7.8
2020-Jan-24 17:25 080 2 gusting 4 7.2
2020-Jan-24 17:15 123 2 gusting 4 7.8
2020-Jan-24 17:05 135 1 gusting 3 7.2
2020-Jan-24 16:55 136 2 gusting 5 7.2
2020-Jan-24 16:45 111 2 gusting 4 7.2
2020-Jan-24 16:35 122 2 gusting 5 7.2
2020-Jan-24 16:25 122 1 gusting 3 7.2
2020-Jan-24 16:15 109 2 gusting 4 7.2
2020-Jan-24 16:05 089 3 gusting 5 7.2
2020-Jan-24 15:55 071 2 gusting 3 6.7
2020-Jan-24 15:45 062 2 gusting 4 6.7
2020-Jan-24 15:35 076 1 gusting 2 6.1
2020-Jan-24 15:25 057 0 gusting 2 5.6
2020-Jan-24 15:15 043 1 gusting 4 5.0
2020-Jan-24 15:05 115 0 gusting 1 4.4
2020-Jan-24 14:55 071 0 gusting 1 4.4
2020-Jan-24 14:45 034 0 gusting 1 3.3
2020-Jan-24 14:35 047 0 gusting 1 2.8
2020-Jan-24 14:25 064 0 gusting 2 2.2
2020-Jan-24 14:15 1.1
2020-Jan-24 14:05 090 0.6
2020-Jan-24 13:55 068 0 gusting 1 -0.0
2020-Jan-24 13:45 067 -0.6
2020-Jan-24 13:35 -0.6
2020-Jan-24 13:25 337 -1.1
2020-Jan-24 13:15 -1.1
2020-Jan-24 13:05 -1.7
2020-Jan-24 12:55 -1.7
2020-Jan-24 12:45 -1.7
2020-Jan-24 12:35 -1.7
2020-Jan-24 12:25 -1.7
2020-Jan-24 12:15 -1.7
2020-Jan-24 12:05 -1.7
2020-Jan-24 11:55 -1.7
2020-Jan-24 11:45 -1.7
2020-Jan-24 11:35 -1.7
2020-Jan-24 11:25 -1.7
2020-Jan-24 11:15 -1.7
2020-Jan-24 11:05 -1.7
2020-Jan-24 10:55 -1.7
2020-Jan-24 10:45 -1.7
2020-Jan-24 10:35 -1.7
2020-Jan-24 10:25 -1.7
2020-Jan-24 10:15 -1.7
2020-Jan-24 10:05 022 -1.7
2020-Jan-24 09:55 -1.7
2020-Jan-24 09:45 -1.7
2020-Jan-24 09:35 -1.7
2020-Jan-24 09:25 -1.7
2020-Jan-24 09:15 045 0 gusting 1 -1.7
2020-Jan-24 09:05 -1.7
2020-Jan-24 08:55 -1.7
2020-Jan-24 08:45 045 -1.7
2020-Jan-24 08:35 -1.7
2020-Jan-24 08:25 270 0 gusting 1 -1.7
2020-Jan-24 08:15 347 0 gusting 1 -2.2
2020-Jan-24 08:05 -2.2
2020-Jan-24 07:55 005 -2.2
2020-Jan-24 07:45 311 -2.2
2020-Jan-24 07:35 -2.2
2020-Jan-24 07:25 337 0 gusting 0 -2.2
2020-Jan-24 07:15 -1.7
2020-Jan-24 07:05 -1.7
2020-Jan-24 06:55 337 -1.7
2020-Jan-24 06:45 045 1 gusting 1 -1.7
2020-Jan-24 06:35 259 0 gusting 1 -2.2
2020-Jan-24 06:25 283 0 gusting 0 -2.2
2020-Jan-24 06:15 -2.2
2020-Jan-24 06:05 270 -2.2
2020-Jan-24 05:55 -2.2
2020-Jan-24 05:45 -2.2
2020-Jan-24 05:35 -2.2
2020-Jan-24 05:25 090 -2.2
2020-Jan-24 05:15 -1.7
2020-Jan-24 05:05 -1.7
2020-Jan-24 04:55 026 1 gusting 2 -1.7
2020-Jan-24 04:45 -1.7
2020-Jan-24 04:35 -1.7
2020-Jan-24 04:25 -1.1
2020-Jan-24 04:15 -1.1
2020-Jan-24 04:05 345 -1.1
2020-Jan-24 03:55 -0.6
2020-Jan-24 03:45 -0.6
2020-Jan-24 03:35 -0.6
2020-Jan-24 03:25 -0.6
2020-Jan-24 03:15 -0.0
2020-Jan-24 03:05 -0.0
2020-Jan-24 02:55 -0.0
2020-Jan-24 02:45 -0.0
2020-Jan-24 02:35 -0.0
2020-Jan-24 02:25 -0.0
2020-Jan-24 02:15 -0.0
2020-Jan-24 02:05 -0.0
2020-Jan-24 01:55 -0.0
2020-Jan-24 01:45 -0.0
2020-Jan-24 01:35 0.6
2020-Jan-24 01:25 0.6
2020-Jan-24 01:15 0.6
2020-Jan-24 01:05 0.6
2020-Jan-24 00:55 0.6
2020-Jan-24 00:45 0.6
2020-Jan-24 00:35 0.6
2020-Jan-24 00:25 1.1
2020-Jan-24 00:15 1.1
2020-Jan-24 00:05 1.1
2020-Jan-23 23:55 1.1
2020-Jan-23 23:45 1.1
2020-Jan-23 23:35 1.1
2020-Jan-23 23:25 1.7
2020-Jan-23 23:15 1.7
2020-Jan-23 23:05 1.7
2020-Jan-23 22:55 2.2
2020-Jan-23 22:45 2.2
2020-Jan-23 22:35 2.2
2020-Jan-23 22:25 2.8
2020-Jan-23 22:15 2.8
2020-Jan-23 22:05 3.3
2020-Jan-23 21:55 3.3
2020-Jan-23 21:45 3.9
2020-Jan-23 21:35 116 0 gusting 1 3.9
2020-Jan-23 21:25 127 3.9
2020-Jan-23 21:15 117 0 gusting 1 4.4
2020-Jan-23 21:05 143 4.4
2020-Jan-23 20:55 136 0 gusting 1 4.4
2020-Jan-23 20:45 163 4.4
2020-Jan-23 20:35 159 0 gusting 1 4.4
2020-Jan-23 20:25 4.4
2020-Jan-23 20:15 112 0 gusting 1 3.9
2020-Jan-23 20:05 3.9
2020-Jan-23 19:55 134 0 gusting 1 3.9
2020-Jan-23 19:36 152 1 gusting 2 4.4
2020-Jan-23 19:25 114 1 gusting 2 4.4
2020-Jan-23 19:15 076 1 gusting 3 4.4
2020-Jan-23 19:05 071 0 gusting 1 4.4
2020-Jan-23 18:55 133 1 gusting 2 4.4
2020-Jan-23 18:45 098 1 gusting 2 4.4
2020-Jan-23 18:35 108 1 gusting 3 4.4
2020-Jan-23 18:25 089 1 gusting 2 4.4
2020-Jan-23 18:15 077 1 gusting 2 4.4
2020-Jan-23 18:05 124 1 gusting 2 3.9
2020-Jan-23 17:55 076 1 gusting 1 4.4
2020-Jan-23 17:45 103 1 gusting 2 3.9
2020-Jan-23 17:35 119 1 gusting 2 3.9
2020-Jan-23 17:25 081 0 gusting 2 3.9
2020-Jan-23 17:15 125 1 gusting 2 3.3
2020-Jan-23 17:05 149 0 gusting 1 3.3
2020-Jan-23 16:55 3.3
2020-Jan-23 16:45 136 3.3
2020-Jan-23 16:35 130 0 gusting 2 3.9
2020-Jan-23 16:25 055 0 gusting 2 3.3
2020-Jan-23 16:15 101 0 gusting 1 3.3
2020-Jan-23 16:05 060 1 gusting 2 2.8
2020-Jan-23 15:55 092 1 gusting 2 2.8
2020-Jan-23 15:45 099 0 gusting 1 2.2
2020-Jan-23 15:35 112 0 gusting 1 1.7
2020-Jan-23 15:25 085 1 gusting 2 1.7
2020-Jan-23 15:15 064 1.1
2020-Jan-23 15:05 078 0 gusting 1 1.1